ADDS METAR Data INFO
IDs: Format: Raw Decoded Include TAF

Data at: 0727 UTC 16 Jan 2018

METAR for:PAVC (King Cove Arpt, AK, US)
Text:PAVC 160522Z AUTO VRB03KT 6SM -RA BR FEW007 BKN023 OVC033 02/01 A2935 RMK AO2 UPB19E21 P0001 FZRANO
Temperature: 2.0°C ( 36°F)
Dewpoint: 1.0°C ( 34°F) [RH = 93%]
Pressure (altimeter):29.35 inches Hg ( 994.0 mb)
Winds:variable direction winds at 3 MPH (3 knots; 1.5 m/s)
Visibility: 6 sm ( 10 km)
Ceiling:2300 feet AGL
Clouds: few clouds at 700 feet AGL, broken clouds at 2300 feet AGL, overcast cloud deck at 3300 feet AGL
Weather:-RA BR (light rain, mist)
QC Flag:automated observation with no human augmentation
Text:PAVC 160456Z AUTO 00000KT 10SM -RA FEW016 BKN030 OVC046 01/01 A2935 RMK AO2 UPEMMRAB00 SLP943 P0000 T00110006 FZRANO
Temperature: 1.1°C ( 34°F)
Dewpoint: 0.6°C ( 33°F) [RH = 96%]
Pressure (altimeter):29.35 inches Hg ( 994.0 mb) [Sea level pressure: 994.3 mb]
Winds:calm
Visibility:10 or more sm (16+ km)
Ceiling:3000 feet AGL
Clouds: few clouds at 1600 feet AGL, broken clouds at 3000 feet AGL, overcast cloud deck at 4600 feet AGL
Weather:-RA (light rain)
QC Flag:automated observation with no human augmentation
Text:PAVC 160356Z AUTO 35005KT 7SM UP BKN016 BKN020 OVC025 01/00 A2934 RMK AO2 UPB00E14B38RAB29E38 SLP940 P0004 T00110000 FZRANO
Temperature: 1.1°C ( 34°F)
Dewpoint: 0.0°C ( 32°F) [RH = 92%]
Pressure (altimeter):29.34 inches Hg ( 993.6 mb) [Sea level pressure: 994.0 mb]
Winds:from the N (350 degrees) at 6 MPH (5 knots; 2.6 m/s)
Visibility: 7 sm ( 11 km)
Ceiling:1600 feet AGL
Clouds: broken clouds at 1600 feet AGL, broken clouds at 2000 feet AGL, overcast cloud deck at 2500 feet AGL
Weather:UP (unknown precipitation)
QC Flag:automated observation with no human augmentation
Text:PAVC 160319Z AUTO 09004KT 10SM BKN024 BKN032 BKN065 02/00 A2933 RMK AO2 UPB00E14 P0000 FZRANO
Temperature: 2.0°C ( 36°F)
Dewpoint: 0.0°C ( 32°F) [RH = 87%]
Pressure (altimeter):29.33 inches Hg ( 993.3 mb)
Winds:from the E (90 degrees) at 5 MPH (4 knots; 2.1 m/s)
Visibility:10 or more sm (16+ km)
Ceiling:2400 feet AGL
Clouds: broken clouds at 2400 feet AGL, broken clouds at 3200 feet AGL, broken clouds at 6500 feet AGL
QC Flag:automated observation with no human augmentation
Text:PAVC 160256Z AUTO 04004KT 10SM FEW013 BKN032 OVC040 02/01 A2932 RMK AO2 RAE45 SLP934 P0001 60002 T00170011 53008 FZRANO
Temperature: 1.7°C ( 35°F)
Dewpoint: 1.1°C ( 34°F) [RH = 96%]
Pressure (altimeter):29.32 inches Hg ( 993.0 mb) [Sea level pressure: 993.4 mb]
Winds:from the NE (40 degrees) at 5 MPH (4 knots; 2.1 m/s)
Visibility:10 or more sm (16+ km)
Ceiling:3200 feet AGL
Clouds: few clouds at 1300 feet AGL, broken clouds at 3200 feet AGL, overcast cloud deck at 4000 feet AGL
QC Flag:automated observation with no human augmentation
Text:PAVC 160234Z AUTO VRB03KT 5SM -RA BR SCT013 BKN025 OVC055 02/00 A2932 RMK AO2 P0001 FZRANO
Temperature: 2.0°C ( 36°F)
Dewpoint: 0.0°C ( 32°F) [RH = 87%]
Pressure (altimeter):29.32 inches Hg ( 993.0 mb)
Winds:variable direction winds at 3 MPH (3 knots; 1.5 m/s)
Visibility: 5 sm ( 8 km)
Ceiling:2500 feet AGL
Clouds: scattered clouds at 1300 feet AGL, broken clouds at 2500 feet AGL, overcast cloud deck at 5500 feet AGL
Weather:-RA BR (light rain, mist)
QC Flag:automated observation with no human augmentation
Text:PAVC 160226Z AUTO 12007KT 7SM -RA SCT017 SCT025 BKN040 03/00 A2932 RMK AO2 P0001
Temperature: 3.0°C ( 37°F)
Dewpoint: 0.0°C ( 32°F) [RH = 81%]
Pressure (altimeter):29.32 inches Hg ( 993.0 mb)
Winds:from the ESE (120 degrees) at 8 MPH (7 knots; 3.6 m/s)
Visibility: 7 sm ( 11 km)
Ceiling:4000 feet AGL
Clouds: scattered clouds at 1700 feet AGL, scattered clouds at 2500 feet AGL, broken clouds at 4000 feet AGL
Weather:-RA (light rain)
QC Flag:automated observation with no human augmentation
Text:PAVC 160205Z AUTO 12006KT 7SM -RA SCT013 BKN019 OVC027 03/01 A2931 RMK AO2 P0001
Temperature: 3.0°C ( 37°F)
Dewpoint: 1.0°C ( 34°F) [RH = 87%]
Pressure (altimeter):29.31 inches Hg ( 992.6 mb)
Winds:from the ESE (120 degrees) at 7 MPH (6 knots; 3.1 m/s)
Visibility: 7 sm ( 11 km)
Ceiling:1900 feet AGL
Clouds: scattered clouds at 1300 feet AGL, broken clouds at 1900 feet AGL, overcast cloud deck at 2700 feet AGL
Weather:-RA (light rain)
QC Flag:automated observation with no human augmentation
Text:PAVC 160156Z AUTO 10006KT 6SM -RA BR BKN013 OVC021 03/02 A2931 RMK AO2 UPB36E41RAB41 SLP930 P0001 T00280017
Temperature: 2.8°C ( 37°F)
Dewpoint: 1.7°C ( 35°F) [RH = 92%]
Pressure (altimeter):29.31 inches Hg ( 992.6 mb) [Sea level pressure: 993.0 mb]
Winds:from the E (100 degrees) at 7 MPH (6 knots; 3.1 m/s)
Visibility: 6 sm ( 10 km)
Ceiling:1300 feet AGL
Clouds: broken clouds at 1300 feet AGL, overcast cloud deck at 2100 feet AGL
Weather:-RA BR (light rain, mist)
QC Flag:automated observation with no human augmentation
Text:PAVC 160151Z AUTO 09006KT 10SM -RA BKN013 OVC021 02/02 A2931 RMK AO2 UPB36E41RAB41 P0001 FZRANO
Temperature: 2.0°C ( 36°F)
Dewpoint: 2.0°C ( 36°F) [RH = 100%]
Pressure (altimeter):29.31 inches Hg ( 992.6 mb)
Winds:from the E (90 degrees) at 7 MPH (6 knots; 3.1 m/s)
Visibility:10 or more sm (16+ km)
Ceiling:1300 feet AGL
Clouds: broken clouds at 1300 feet AGL, overcast cloud deck at 2100 feet AGL
Weather:-RA (light rain)
QC Flag:automated observation with no human augmentation

TAF for:PAVC (King Cove Arpt, AK, US)
Text:No data found